boothstars.com alexa rank chart, boothstars.com alexa rank daily changes

boothstars.com alexa rank chart, boothstars.com alexa rank daily changes

boothstars.com
Actual rank:
775 393

RANK HISTORY

Date Rank Diff
2017/05/20 775 393 -9 310
2017/05/19 784 703 +27 867
2017/05/18 756 836 -10 860
2017/05/17 767 696 +12 082
2017/05/16 755 614 -9 933
2017/05/15 765 547 -2 634
2017/05/14 768 181 +12 019
2017/05/13 756 162 +19 066
2017/05/12 737 096 +2 702
2017/05/11 734 394 +27 062
2017/05/10 707 332 +16 980
2017/05/09 690 352 +226
2017/05/08 690 126 -7 059
2017/05/07 697 185 +1 324
2017/05/06 695 861 +10 363
2017/05/05 685 498 -16 394
2017/05/04 701 892 +411
2017/05/03 701 481 -684
2017/05/02 702 165 +18 698
2017/05/01 683 467 -21 135
2017/04/30 704 602 +18 708
2017/04/29 685 894 -5 139
2017/04/28 691 033 -14 191
2017/04/27 705 224 +6 901
2017/04/26 698 323 +10 251
2017/04/25 688 072 -3 525
2017/04/24 691 597 -14 389
2017/04/23 705 986 -13 615
2017/04/22 719 601 +4 982
2017/04/21 714 619 -4 601
2017/04/20 719 220 +5 831
2017/04/19 713 389 -32 836
2017/04/18 746 225 +3 528
2017/04/17 742 697 -23 255
2017/04/16 765 952 -13 660
2017/04/15 779 612 +5 076
2017/04/14 774 536 +1 579
2017/04/13 772 957 +82
2017/04/12 772 875 -8 918
2017/04/11 781 793 -20 775
2017/04/10 802 568 -33 753
2017/04/09 836 321 +7 124
2017/04/08 829 197 +17 566
2017/04/07 811 631 -24 784
2017/04/06 836 415 -26 187
2017/04/05 862 602 -22 217
2017/04/04 884 819 +2 300
2017/04/03 882 519 +3 911
2017/04/02 878 608 +19 076
2017/04/01 859 532 +4 476
2017/03/31 855 056 +5 028
2017/03/30 850 028 -31 804
2017/03/29 881 832 +1 192
2017/03/28 880 640 +38 316
2017/03/27 842 324 +12 566
2017/03/26 829 758 -27 659
2017/03/25 857 417 -1 857
2017/03/24 859 274 +36 947
2017/03/23 822 327 +13 768
2017/03/22 808 559 +4 000
2017/03/21 804 559

WIDGET FOR YOUR SITE

DOMAINS WITH THE NEAREST RANK

Domain Rank
xn--hgelhelden-9db.de 775 388
cuckoldspace.net 775 389
swing-trading-strategies.com 775 390
folkoteka.com 775 391
pipe--line.com 775 392
boothstars.com 775 393
gbn.co.za 775 394
kinoeuropa.hr 775 395
gruppocomes.it 775 396
serve.gov 775 397
mytizi.net 775 398

DOMAINS WITH THE NEAREST RANK BY TLD .com

Domain Rank
greenjobinterview.com 775 382
aiirono-shadowverse.com 775 384
swing-trading-strategies.com 775 390
folkoteka.com 775 391
pipe--line.com 775 392
boothstars.com 775 393
world-of-emergency.com 775 399
minami101.com 775 401
kashpersky.com 775 402
hushstop.com 775 406
hatfon.com 775 407